createdAt,value
2019-05-30T00:00:28.174Z,99999.75
2019-05-30T00:02:56.827Z,99997.56
2019-05-30T00:05:23.055Z,99999.44
2019-05-30T00:07:50.501Z,99995.15
2019-05-30T00:10:17.913Z,99995.36
2019-05-30T00:12:45.366Z,100000.33
2019-05-30T00:15:12.815Z,100005.33
2019-05-30T00:17:40.273Z,100000.34
2019-05-30T00:20:07.707Z,99996.80
2019-05-30T00:22:35.119Z,99996.67
2019-05-30T00:25:04.247Z,99994.03
2019-05-30T00:27:30.613Z,99987.08
2019-05-30T00:29:59.224Z,99996.52
2019-05-30T00:32:25.529Z,99994.35
2019-05-30T00:34:52.957Z,99995.33
2019-05-30T00:37:20.397Z,99993.70
2019-05-30T00:39:47.824Z,99994.64
2019-05-30T00:42:15.263Z,99995.48
2019-05-30T00:44:42.703Z,99997.61
2019-05-30T00:47:10.146Z,99992.23
2019-05-30T00:49:37.622Z,99994.97
2019-05-30T00:52:05.212Z,99997.23
2019-05-30T00:54:32.578Z,99998.00
2019-05-30T00:57:00.649Z,100001.95
2019-05-30T00:59:27.470Z,99998.12
2019-05-30T01:01:54.932Z,100000.08
2019-05-30T01:04:22.403Z,100002.11
2019-05-30T01:06:49.833Z,99993.36
2019-05-30T01:09:17.292Z,99993.09
2019-05-30T01:11:45.238Z,99990.58
2019-05-30T01:14:12.744Z,99998.86
2019-05-30T01:16:42.524Z,99985.95
2019-05-30T01:19:07.622Z,99999.22
2019-05-30T01:21:35.049Z,99994.27
2019-05-30T01:24:03.539Z,99986.09
2019-05-30T01:26:30.318Z,99983.59
2019-05-30T01:28:57.751Z,99987.44
2019-05-30T01:31:25.207Z,99980.58
2019-05-30T01:33:52.646Z,99986.47
2019-05-30T01:36:20.106Z,99984.45
2019-05-30T01:38:47.527Z,99988.25
2019-05-30T01:41:17.520Z,99988.56
2019-05-30T01:43:42.438Z,99988.49
2019-05-30T01:46:09.859Z,99983.41
2019-05-30T01:48:37.334Z,99989.61
2019-05-30T01:51:06.525Z,99996.39
2019-05-30T01:53:33.029Z,99986.51
2019-05-30T01:56:00.767Z,99981.08
2019-05-30T01:58:27.915Z,99986.48
2019-05-30T02:00:55.353Z,99984.08
2019-05-30T02:03:22.774Z,99984.02
2019-05-30T02:05:50.203Z,99980.48
2019-05-30T02:08:17.620Z,99976.56
2019-05-30T02:10:45.960Z,99977.72
2019-05-30T02:13:13.459Z,99979.41
2019-05-30T02:15:40.907Z,99975.66
2019-05-30T02:18:08.339Z,99979.45
2019-05-30T02:20:36.031Z,99976.83
2019-05-30T02:23:05.773Z,99974.61
2019-05-30T02:25:30.898Z,99979.41
2019-05-30T02:27:58.471Z,99980.05
2019-05-30T02:30:25.896Z,99973.41
2019-05-30T02:32:53.326Z,99973.68
2019-05-30T02:35:20.747Z,99979.40
2019-05-30T02:37:48.201Z,99983.02
2019-05-30T02:40:15.677Z,99984.64
2019-05-30T02:42:43.089Z,99984.89
2019-05-30T02:45:12.481Z,99975.86
2019-05-30T02:47:37.975Z,99989.64
2019-05-30T02:50:06.575Z,99990.89
2019-05-30T02:52:33.000Z,99988.35
2019-05-30T02:55:01.882Z,99991.80
2019-05-30T02:57:27.916Z,99997.94
2019-05-30T02:59:55.333Z,99993.14
2019-05-30T03:02:22.796Z,99988.64
2019-05-30T03:04:50.240Z,99984.27
2019-05-30T03:07:17.690Z,99988.41
2019-05-30T03:09:45.142Z,99996.91
2019-05-30T03:12:13.413Z,99996.09
2019-05-30T03:14:40.132Z,100000.34
2019-05-30T03:17:10.268Z,99996.17
2019-05-30T03:19:35.093Z,99993.49
2019-05-30T03:22:03.511Z,99991.73
2019-05-30T03:24:30.015Z,100001.39
2019-05-30T03:26:57.468Z,99999.50
2019-05-30T03:29:24.911Z,99998.73
2019-05-30T03:31:52.375Z,100006.08
2019-05-30T03:34:27.680Z,100003.09
2019-05-30T03:36:47.322Z,100009.01
2019-05-30T03:39:15.555Z,99999.66
2019-05-30T03:41:42.266Z,100003.45
2019-05-30T03:44:11.481Z,100000.83
2019-05-30T03:46:37.736Z,100007.01
2019-05-30T03:49:06.716Z,100001.34
2019-05-30T03:51:32.619Z,100007.40
2019-05-30T03:54:00.068Z,100007.17
2019-05-30T03:56:28.283Z,100008.80
2019-05-30T03:59:01.404Z,100005.48
2019-05-30T04:01:44.525Z,100004.06
2019-05-30T04:04:16.679Z,100004.22
2019-05-30T04:06:46.198Z,100007.06
2019-05-30T04:09:19.411Z,100014.89
2019-05-30T04:11:42.632Z,100022.28
2019-05-30T04:14:11.139Z,100025.05
2019-05-30T04:16:39.021Z,100025.11
2019-05-30T04:19:07.884Z,100024.26
2019-05-30T04:21:33.911Z,100024.77
2019-05-30T04:24:01.359Z,100025.25
2019-05-30T04:26:28.810Z,100023.55
2019-05-30T04:28:56.230Z,100025.83
2019-05-30T04:31:23.695Z,100021.22
2019-05-30T04:33:51.115Z,100018.88
2019-05-30T04:36:19.101Z,100024.16
2019-05-30T04:38:46.049Z,100023.96
2019-05-30T04:41:15.698Z,100029.16
2019-05-30T04:43:40.979Z,100022.70
2019-05-30T04:46:10.419Z,100018.77
2019-05-30T04:48:36.493Z,100016.78
2019-05-30T04:51:04.146Z,100014.73
2019-05-30T04:53:31.579Z,100015.31
2019-05-30T04:55:59.035Z,100017.73
2019-05-30T04:58:26.468Z,100021.36
2019-05-30T05:00:53.906Z,100018.98
2019-05-30T05:03:43.458Z,100017.75
2019-05-30T05:05:49.955Z,100022.02
2019-05-30T05:08:17.968Z,100028.02
2019-05-30T05:10:44.841Z,100030.20
2019-05-30T05:13:12.331Z,100029.27
2019-05-30T05:15:39.705Z,100031.18
2019-05-30T05:18:07.169Z,100022.05
2019-05-30T05:20:36.224Z,100019.38
2019-05-30T05:23:02.090Z,100021.99
2019-05-30T05:25:29.513Z,100022.18
2019-05-30T05:27:56.963Z,100027.88
2019-05-30T05:30:24.475Z,100028.36
2019-05-30T05:32:51.868Z,100028.05
2019-05-30T05:35:19.315Z,100029.39
2019-05-30T05:37:46.762Z,100028.30
2019-05-30T05:40:14.200Z,100024.17
2019-05-30T05:42:41.666Z,100027.78
2019-05-30T05:45:10.139Z,100018.17
2019-05-30T05:47:37.605Z,100016.65
2019-05-30T05:50:05.043Z,100022.41
2019-05-30T05:52:32.471Z,100023.96
2019-05-30T05:54:59.918Z,100027.91
2019-05-30T05:57:27.366Z,100035.17
2019-05-30T05:59:54.799Z,100042.98
2019-05-30T06:02:23.275Z,100043.91
2019-05-30T06:04:49.706Z,100037.72
2019-05-30T06:07:18.126Z,100036.58
2019-05-30T06:09:44.617Z,100036.16
2019-05-30T06:12:12.031Z,100039.55
2019-05-30T06:14:39.481Z,100042.64
2019-05-30T06:17:06.919Z,100044.17
2019-05-30T06:19:46.037Z,100051.26
2019-05-30T06:22:01.865Z,100057.19
2019-05-30T06:24:29.311Z,100065.36
2019-05-30T06:26:56.772Z,100051.38
2019-05-30T06:29:24.230Z,100056.16
2019-05-30T06:31:51.666Z,100049.98
2019-05-30T06:34:29.206Z,100059.49
2019-05-30T06:36:47.240Z,100054.28
2019-05-30T06:39:14.756Z,100056.31
2019-05-30T06:41:42.224Z,100059.70
2019-05-30T06:44:09.739Z,100059.08
2019-05-30T06:46:37.305Z,100056.16
2019-05-30T06:49:05.678Z,100058.87
2019-05-30T06:51:33.190Z,100046.06
2019-05-30T06:54:00.615Z,100051.76
2019-05-30T06:56:29.400Z,100065.37
2019-05-30T06:58:55.556Z,100061.33
2019-05-30T07:01:23.784Z,100075.88
2019-05-30T07:03:50.580Z,100067.27
2019-05-30T07:06:18.238Z,100060.64
2019-05-30T07:08:45.464Z,100070.09
2019-05-30T07:11:12.911Z,100069.72
2019-05-30T07:13:40.338Z,100071.01
2019-05-30T07:16:07.798Z,100072.13
2019-05-30T07:18:36.763Z,100083.41
2019-05-30T07:21:02.696Z,100079.45
2019-05-30T07:23:30.304Z,100075.37
2019-05-30T07:25:57.681Z,100083.61
2019-05-30T07:28:25.823Z,100086.99
2019-05-30T07:30:52.893Z,100087.70
2019-05-30T07:33:20.341Z,100085.95
2019-05-30T07:35:49.007Z,100095.75
2019-05-30T07:38:16.562Z,100101.59
2019-05-30T07:40:44.125Z,100103.09
2019-05-30T07:43:12.863Z,100108.58
2019-05-30T07:45:40.337Z,100106.92
2019-05-30T07:48:07.766Z,100108.45
2019-05-30T07:50:35.197Z,100112.66
2019-05-30T07:53:02.625Z,100105.54
2019-05-30T07:55:30.970Z,100120.34
2019-05-30T07:57:57.535Z,100122.30
2019-05-30T08:00:25.021Z,100117.92
2019-05-30T08:02:53.320Z,100126.84
2019-05-30T08:05:24.706Z,100129.08
2019-05-30T08:07:48.519Z,100123.27
2019-05-30T08:10:15.977Z,100126.00
2019-05-30T08:12:43.403Z,100120.22
2019-05-30T08:15:10.884Z,100118.53
2019-05-30T08:17:38.324Z,100117.40
2019-05-30T08:20:05.770Z,100116.19
2019-05-30T08:22:34.144Z,100115.50
2019-05-30T08:25:00.668Z,100121.33
2019-05-30T08:27:28.309Z,100117.20
2019-05-30T08:29:55.751Z,100120.89
2019-05-30T08:32:23.190Z,100122.31
2019-05-30T08:34:50.636Z,100116.48
2019-05-30T08:37:18.113Z,100111.98
2019-05-30T08:39:45.550Z,100109.22
2019-05-30T08:42:13.586Z,100106.80
2019-05-30T08:44:41.027Z,100108.66
2019-05-30T08:47:08.480Z,100107.53
2019-05-30T08:49:36.173Z,100110.27
2019-05-30T08:52:03.468Z,100114.98
2019-05-30T08:54:30.903Z,100112.02
2019-05-30T08:56:58.372Z,100098.57
2019-05-30T08:59:25.825Z,100096.73
2019-05-30T09:01:53.419Z,100102.09
2019-05-30T09:04:20.777Z,100091.35
2019-05-30T09:06:48.210Z,100097.39
2019-05-30T09:09:15.673Z,100101.52
2019-05-30T09:11:44.462Z,100089.59
2019-05-30T09:14:12.885Z,100083.61
2019-05-30T09:16:40.432Z,100093.01
2019-05-30T09:19:07.894Z,100087.34
2019-05-30T09:21:35.360Z,100098.20
2019-05-30T09:24:02.890Z,100101.41
2019-05-30T09:26:30.303Z,100099.72
2019-05-30T09:28:57.719Z,100103.19
2019-05-30T09:31:25.162Z,100097.13
2019-05-30T09:33:52.907Z,100111.64
2019-05-30T09:36:20.338Z,100112.97
2019-05-30T09:38:47.798Z,100110.45
2019-05-30T09:41:15.231Z,100111.48
2019-05-30T09:43:43.368Z,100110.24
2019-05-30T09:46:10.132Z,100110.63
2019-05-30T09:48:37.589Z,100119.50
2019-05-30T09:51:05.037Z,100120.84
2019-05-30T09:53:32.490Z,100126.82
2019-05-30T09:55:59.964Z,100128.77
2019-05-30T09:58:27.382Z,100123.41
2019-05-30T10:00:54.827Z,100121.38
2019-05-30T10:03:22.292Z,100119.98
2019-05-30T10:05:50.570Z,100122.70
2019-05-30T10:08:17.221Z,100120.17
2019-05-30T10:10:45.725Z,100114.81
2019-05-30T10:13:12.852Z,100120.23
2019-05-30T10:15:40.371Z,100117.23
2019-05-30T10:18:07.796Z,100123.62
2019-05-30T10:20:35.245Z,100125.07
2019-05-30T10:23:03.692Z,100140.25
2019-05-30T10:25:30.165Z,100121.72
2019-05-30T10:27:57.831Z,100141.46
2019-05-30T10:30:25.141Z,100123.19
2019-05-30T10:32:53.653Z,100122.54
2019-05-30T10:35:21.147Z,100128.75
2019-05-30T10:37:49.179Z,100131.71
2019-05-30T10:40:16.171Z,100141.69
2019-05-30T10:42:43.643Z,100143.55
2019-05-30T10:45:11.081Z,100143.67
2019-05-30T10:47:38.519Z,100137.51
2019-05-30T10:50:05.976Z,100143.50
2019-05-30T10:52:33.411Z,100145.69
2019-05-30T10:55:00.850Z,100137.27
2019-05-30T10:57:28.280Z,100146.15
2019-05-30T10:59:56.781Z,100144.55
2019-05-30T11:02:23.219Z,100144.81
2019-05-30T11:04:51.147Z,100147.45
2019-05-30T11:07:53.140Z,100152.12
2019-05-30T11:10:11.473Z,100150.66
2019-05-30T11:12:38.958Z,100167.94
2019-05-30T11:15:06.393Z,100162.77
2019-05-30T11:17:33.868Z,100164.41
2019-05-30T11:20:02.046Z,100160.88
2019-05-30T11:22:29.513Z,100155.98
2019-05-30T11:24:56.958Z,100163.16
2019-05-30T11:27:24.375Z,100160.88
2019-05-30T11:29:52.877Z,100153.64
2019-05-30T11:32:19.335Z,100151.64
2019-05-30T11:34:46.907Z,100148.77
2019-05-30T11:37:18.606Z,100165.00
2019-05-30T11:39:41.825Z,100159.91
2019-05-30T11:42:09.266Z,100156.89
2019-05-30T11:44:36.706Z,100161.77
2019-05-30T11:47:04.134Z,100163.84
2019-05-30T11:49:31.547Z,100161.27
2019-05-30T11:51:59.972Z,100162.73
2019-05-30T11:54:26.499Z,100156.66
2019-05-30T11:56:54.044Z,100161.92
2019-05-30T11:59:21.426Z,100167.11
2019-05-30T12:01:50.170Z,100169.42
2019-05-30T12:04:16.372Z,100165.86
2019-05-30T12:06:43.841Z,100170.02
2019-05-30T12:09:14.535Z,100165.54
2019-05-30T12:11:38.771Z,100167.95
2019-05-30T12:14:06.219Z,100163.84
2019-05-30T12:16:33.708Z,100168.29
2019-05-30T12:19:01.952Z,100162.11
2019-05-30T12:21:29.958Z,100161.42
2019-05-30T12:23:56.098Z,100167.52
2019-05-30T12:26:23.522Z,100167.47
2019-05-30T12:28:52.108Z,100167.47
2019-05-30T12:31:19.549Z,100166.67
2019-05-30T12:33:48.042Z,100168.83
2019-05-30T12:36:15.482Z,100169.19
2019-05-30T12:38:42.936Z,100168.45
2019-05-30T12:41:10.376Z,100169.86
2019-05-30T12:43:37.878Z,100171.92
2019-05-30T12:46:05.312Z,100169.77
2019-05-30T12:48:32.772Z,100175.22
2019-05-30T12:51:01.374Z,100173.69
2019-05-30T12:53:27.663Z,100177.34
2019-05-30T12:55:56.312Z,100173.38
2019-05-30T12:58:22.566Z,100180.08
2019-05-30T13:00:50.327Z,100184.55
2019-05-30T13:03:18.485Z,100187.78
2019-05-30T13:05:45.915Z,100181.31
2019-05-30T13:08:21.249Z,100183.17
2019-05-30T13:10:40.838Z,100189.84
2019-05-30T13:13:08.270Z,100195.08
2019-05-30T13:15:35.733Z,100191.88
2019-05-30T13:18:03.193Z,100189.08
2019-05-30T13:20:30.648Z,100186.73
2019-05-30T13:22:58.443Z,100190.16
2019-05-30T13:25:25.571Z,100188.61
2019-05-30T13:27:53.022Z,100194.19
2019-05-30T13:30:20.458Z,100191.79
2019-05-30T13:32:47.909Z,100184.82
2019-05-30T13:35:15.335Z,100183.82
2019-05-30T13:37:42.771Z,100186.28
2019-05-30T13:40:24.295Z,100195.73
2019-05-30T13:42:37.695Z,100193.41
2019-05-30T13:45:06.050Z,100196.22
2019-05-30T13:47:32.705Z,100197.52
2019-05-30T13:50:00.724Z,100196.35
2019-05-30T13:52:27.624Z,100204.66
2019-05-30T13:54:55.083Z,100203.82
2019-05-30T13:57:22.521Z,100201.91
2019-05-30T13:59:49.999Z,100205.02
2019-05-30T14:02:17.435Z,100206.95
2019-05-30T14:04:44.894Z,100207.73
2019-05-30T14:07:12.383Z,100210.56
2019-05-30T14:09:39.825Z,100206.06
2019-05-30T14:12:07.281Z,100212.27
2019-05-30T14:14:34.722Z,100218.69
2019-05-30T14:17:02.835Z,100219.95
2019-05-30T14:19:29.649Z,100218.94
2019-05-30T14:21:57.106Z,100226.98
2019-05-30T14:24:24.570Z,100227.06
2019-05-30T14:26:52.023Z,100225.56
2019-05-30T14:29:20.113Z,100230.62
2019-05-30T14:31:47.571Z,100220.74
2019-05-30T14:34:15.039Z,100213.41
2019-05-30T14:36:42.486Z,100211.52
2019-05-30T14:39:11.112Z,100211.98
2019-05-30T14:41:37.402Z,100205.44
2019-05-30T14:44:05.165Z,100206.54
2019-05-30T14:46:32.319Z,100202.89
2019-05-30T14:48:59.806Z,100212.14
2019-05-30T14:51:27.271Z,100206.44
2019-05-30T14:53:54.768Z,100204.72
2019-05-30T14:56:22.246Z,100207.85
2019-05-30T14:58:50.786Z,100211.58
2019-05-30T15:01:18.254Z,100208.30
2019-05-30T15:03:46.186Z,100208.34
2019-05-30T15:06:16.308Z,100212.72
2019-05-30T15:08:41.133Z,100210.37
2019-05-30T15:11:09.479Z,100201.95
2019-05-30T15:13:36.086Z,100209.28
2019-05-30T15:16:04.694Z,100207.94
2019-05-30T15:18:30.994Z,100207.03
2019-05-30T15:20:58.431Z,100205.50
2019-05-30T15:23:26.616Z,100206.37
2019-05-30T15:25:54.238Z,100202.91
2019-05-30T15:28:22.111Z,100213.94
2019-05-30T15:30:49.544Z,100211.38
2019-05-30T15:33:16.977Z,100208.67
2019-05-30T15:35:44.468Z,100209.16
2019-05-30T15:38:12.894Z,100209.02
2019-05-30T15:40:39.386Z,100213.14
2019-05-30T15:43:07.279Z,100217.02
2019-05-30T15:45:34.263Z,100208.79
2019-05-30T15:48:01.681Z,100210.56
2019-05-30T15:50:29.142Z,100210.52
2019-05-30T15:52:56.573Z,100204.50
2019-05-30T15:55:24.035Z,100207.78
2019-05-30T15:57:52.598Z,100209.48
2019-05-30T16:00:20.056Z,100204.73
2019-05-30T16:02:47.477Z,100206.43
2019-05-30T16:05:14.956Z,100209.06
2019-05-30T16:07:42.375Z,100211.41
2019-05-30T16:10:10.945Z,100204.97
2019-05-30T16:12:38.054Z,100204.88
2019-05-30T16:15:06.197Z,100199.04
2019-05-30T16:17:33.644Z,100202.95
2019-05-30T16:20:01.069Z,100203.09
2019-05-30T16:22:28.491Z,100193.43
2019-05-30T16:24:55.945Z,100198.86
2019-05-30T16:27:23.367Z,100188.84
2019-05-30T16:29:50.809Z,100194.56
2019-05-30T16:32:18.732Z,100184.62
2019-05-30T16:34:45.794Z,100187.35
2019-05-30T16:37:14.167Z,100186.91
2019-05-30T16:39:40.742Z,100182.69
2019-05-30T16:42:08.181Z,100182.96
2019-05-30T16:44:35.633Z,100181.59
2019-05-30T16:47:03.065Z,100180.57
2019-05-30T16:49:30.511Z,100178.30
2019-05-30T16:51:57.965Z,100181.19
2019-05-30T16:54:25.397Z,100178.90
2019-05-30T16:56:52.943Z,100193.48
2019-05-30T16:59:20.845Z,100190.63
2019-05-30T17:01:57.318Z,100183.14
2019-05-30T17:04:16.769Z,100175.75
2019-05-30T17:06:42.882Z,100184.13
2019-05-30T17:09:10.316Z,100181.95
2019-05-30T17:11:37.768Z,100180.38
2019-05-30T17:14:05.208Z,100179.11
2019-05-30T17:16:32.646Z,100178.45
2019-05-30T17:19:00.123Z,100178.09
2019-05-30T17:21:27.577Z,100175.66
2019-05-30T17:23:55.003Z,100173.92
2019-05-30T17:26:23.488Z,100174.00
2019-05-30T17:28:50.910Z,100174.16
2019-05-30T17:31:19.703Z,100163.97
2019-05-30T17:33:46.621Z,100164.05
2019-05-30T17:36:14.054Z,100168.06
2019-05-30T17:38:41.514Z,100168.01
2019-05-30T17:41:08.974Z,100169.83
2019-05-30T17:43:36.403Z,100168.92
2019-05-30T17:46:07.491Z,100163.69
2019-05-30T17:48:31.296Z,100173.65
2019-05-30T17:50:58.752Z,100172.17
2019-05-30T17:53:26.199Z,100175.76
2019-05-30T17:55:53.938Z,100171.52
2019-05-30T17:58:21.899Z,100174.03
2019-05-30T18:00:48.865Z,100168.96
2019-05-30T18:03:16.307Z,100184.66
2019-05-30T18:05:43.743Z,100177.27
2019-05-30T18:08:11.146Z,100174.55
2019-05-30T18:10:52.777Z,100173.75
2019-05-30T18:13:06.079Z,100169.44
2019-05-30T18:15:33.543Z,100170.66
2019-05-30T18:18:00.958Z,100164.70
2019-05-30T18:20:29.387Z,100163.23
2019-05-30T18:22:55.902Z,100166.70
2019-05-30T18:25:23.611Z,100165.52
2019-05-30T18:27:50.824Z,100171.67
2019-05-30T18:30:18.283Z,100171.35
2019-05-30T18:32:45.695Z,100174.49
2019-05-30T18:35:13.153Z,100179.15
2019-05-30T18:37:40.634Z,100186.88
2019-05-30T18:40:08.085Z,100184.20
2019-05-30T18:42:35.532Z,100180.94
2019-05-30T18:45:02.971Z,100183.96
2019-05-30T18:47:31.187Z,100188.77
2019-05-30T18:49:57.872Z,100185.66
2019-05-30T18:52:26.132Z,100187.80
2019-05-30T18:54:52.753Z,100191.28
2019-05-30T18:57:20.190Z,100192.20
2019-05-30T18:59:47.617Z,100190.38
2019-05-30T19:02:18.393Z,100188.92
2019-05-30T19:04:42.532Z,100188.12
2019-05-30T19:07:09.963Z,100192.93
2019-05-30T19:09:37.602Z,100193.09
2019-05-30T19:12:04.965Z,100190.72
2019-05-30T19:14:34.180Z,100199.56
2019-05-30T19:16:59.941Z,100204.53
2019-05-30T19:19:27.616Z,100195.58
2019-05-30T19:21:55.552Z,100201.86
2019-05-30T19:24:23.005Z,100211.59
2019-05-30T19:26:50.468Z,100210.23
2019-05-30T19:29:17.915Z,100220.28
2019-05-30T19:31:45.370Z,100214.74
2019-05-30T19:34:12.804Z,100214.78
2019-05-30T19:36:40.215Z,100227.58
2019-05-30T19:39:07.668Z,100227.58
2019-05-30T19:41:45.937Z,100231.45
2019-05-30T19:44:03.447Z,100230.83
2019-05-30T19:46:32.199Z,100237.19
2019-05-30T19:48:58.393Z,100232.39
2019-05-30T19:51:26.342Z,100233.47
2019-05-30T19:53:53.969Z,100235.94
2019-05-30T19:56:21.440Z,100234.64
2019-05-30T19:58:48.945Z,100234.66
2019-05-30T20:01:16.392Z,100241.35
2019-05-30T20:03:46.993Z,100243.25
2019-05-30T20:06:11.512Z,100241.13
2019-05-30T20:08:52.534Z,100234.04
2019-05-30T20:11:06.963Z,100243.47
2019-05-30T20:13:35.243Z,100240.80
2019-05-30T20:16:02.819Z,100246.59
2019-05-30T20:18:31.462Z,100246.97
2019-05-30T20:20:58.268Z,100239.31
2019-05-30T20:23:25.198Z,100253.73
2019-05-30T20:25:52.685Z,100256.98
2019-05-30T20:28:20.121Z,100257.31
2019-05-30T20:30:47.601Z,100254.94
2019-05-30T20:33:15.033Z,100256.62
2019-05-30T20:35:43.457Z,100254.37
2019-05-30T20:38:09.953Z,100256.97
2019-05-30T20:40:37.419Z,100264.26
2019-05-30T20:43:04.851Z,100260.98
2019-05-30T20:45:32.318Z,100258.00
2019-05-30T20:47:59.730Z,100259.30
2019-05-30T20:50:27.192Z,100268.34
2019-05-30T20:52:54.622Z,100263.21
2019-05-30T20:55:22.080Z,100269.53
2019-05-30T20:57:49.531Z,100269.30
2019-05-30T21:00:16.989Z,100272.70
2019-05-30T21:02:44.407Z,100279.45
2019-05-30T21:05:11.842Z,100283.63
2019-05-30T21:07:39.833Z,100287.48
2019-05-30T21:10:06.716Z,100283.65
2019-05-30T21:12:41.259Z,100285.76
2019-05-30T21:15:02.661Z,100286.91
2019-05-30T21:17:30.113Z,100284.31
2019-05-30T21:19:57.571Z,100293.72
2019-05-30T21:22:25.010Z,100289.97
2019-05-30T21:24:52.423Z,100291.30
2019-05-30T21:27:19.874Z,100290.88
2019-05-30T21:29:47.621Z,100297.09
2019-05-30T21:32:14.849Z,100297.00
2019-05-30T21:34:42.658Z,100296.89
2019-05-30T21:37:09.716Z,100292.02
2019-05-30T21:39:37.918Z,100293.83
2019-05-30T21:42:05.759Z,100296.19
2019-05-30T21:44:33.124Z,100289.77
2019-05-30T21:47:00.566Z,100300.46
2019-05-30T21:49:28.041Z,100297.38
2019-05-30T21:51:55.459Z,100299.55
2019-05-30T21:54:22.887Z,100307.02
2019-05-30T21:56:50.408Z,100306.59
2019-05-30T21:59:17.841Z,100307.75
2019-05-30T22:01:46.555Z,100310.16
2019-05-30T22:04:12.763Z,100305.80
2019-05-30T22:06:40.858Z,100305.58
2019-05-30T22:09:07.650Z,100304.69
2019-05-30T22:11:35.097Z,100298.72
2019-05-30T22:14:02.535Z,100301.59
2019-05-30T22:16:29.973Z,100303.73
2019-05-30T22:18:57.439Z,100303.61
2019-05-30T22:21:25.005Z,100306.42
2019-05-30T22:23:52.652Z,100299.98
2019-05-30T22:26:20.103Z,100310.02
2019-05-30T22:28:48.409Z,100301.44
2019-05-30T22:31:15.781Z,100300.92
2019-05-30T22:33:44.475Z,100307.41
2019-05-30T22:36:10.738Z,100303.31
2019-05-30T22:38:38.174Z,100302.97
2019-05-30T22:41:05.649Z,100295.55
2019-05-30T22:43:33.083Z,100292.97
2019-05-30T22:46:00.694Z,100298.67
2019-05-30T22:48:28.151Z,100296.90
2019-05-30T22:50:55.610Z,100295.89
2019-05-30T22:53:23.031Z,100291.28
2019-05-30T22:55:51.980Z,100287.69
2019-05-30T22:58:17.953Z,100283.25
2019-05-30T23:00:45.951Z,100282.36
2019-05-30T23:03:12.842Z,100284.13
2019-05-30T23:05:40.291Z,100287.72
2019-05-30T23:08:07.766Z,100281.28
2019-05-30T23:10:35.213Z,100286.38
2019-05-30T23:13:02.634Z,100283.67
2019-05-30T23:15:30.878Z,100287.41
2019-05-30T23:17:58.322Z,100283.80
2019-05-30T23:20:25.780Z,100284.67
2019-05-30T23:22:53.341Z,100290.72
2019-05-30T23:25:21.239Z,100287.21
2019-05-30T23:27:49.495Z,100287.00
2019-05-30T23:30:16.139Z,100287.52
2019-05-30T23:32:43.585Z,100294.60
2019-05-30T23:35:11.050Z,100293.39
2019-05-30T23:37:38.501Z,100298.37
2019-05-30T23:40:05.953Z,100297.25
2019-05-30T23:42:33.385Z,100304.56
2019-05-30T23:45:00.859Z,100297.42
2019-05-30T23:47:28.389Z,100295.75
2019-05-30T23:49:55.986Z,100294.95
2019-05-30T23:52:24.078Z,100293.20
2019-05-30T23:54:52.172Z,100293.07
2019-05-30T23:57:19.005Z,100287.61
2019-05-30T23:59:46.439Z,100280.84
